Time;durP1;ratioP1;P1;durP2;ratioP2;P2;SDS_P1;SDS_P2;PMS_P1;PMS_P2;Temp;Humidity;BMP_temperature;BMP_pressure;BME280_temperature;BME280_humidity;BME280_pressure;Samples;Min_cycle;Max_cycle;Signal;HPM_P1;HPM_P2
2023/03/30 00:00:17;;;;;;;19.10;17.00;;;8.40;99.90;;;;;;4988646;28;20228;-82
2023/03/30 00:02:44;;;;;;;21.33;16.83;;;8.50;99.90;;;;;;4979725;28;20223;-80
2023/03/30 00:05:12;;;;;;;21.90;16.73;;;8.50;99.90;;;;;;4983556;28;20226;-81
2023/03/30 00:07:41;;;;;;;19.20;16.87;;;8.50;99.90;;;;;;4983199;28;20336;-80
2023/03/30 00:10:09;;;;;;;19.93;16.57;;;8.50;99.90;;;;;;4981192;28;20224;-80
2023/03/30 00:12:37;;;;;;;20.97;17.07;;;8.50;99.90;;;;;;4981698;28;20737;-80
2023/03/30 00:15:06;;;;;;;18.90;16.30;;;8.50;99.90;;;;;;4986996;28;20231;-81
2023/03/30 00:17:35;;;;;;;19.23;16.30;;;8.50;99.90;;;;;;4979912;28;20238;-81
2023/03/30 00:20:05;;;;;;;20.17;16.50;;;8.50;99.90;;;;;;4980834;28;20233;-80
2023/03/30 00:22:32;;;;;;;22.57;16.97;;;8.60;99.90;;;;;;4983121;28;20321;-80
2023/03/30 00:24:59;;;;;;;20.40;17.03;;;8.50;99.90;;;;;;4979629;28;20882;-79
2023/03/30 00:27:26;;;;;;;21.33;17.60;;;8.50;99.90;;;;;;4980722;28;20225;-80
2023/03/30 00:29:53;;;;;;;20.20;17.00;;;8.60;99.90;;;;;;4979759;28;20329;-80
2023/03/30 00:32:20;;;;;;;20.30;16.33;;;8.60;99.90;;;;;;4976666;28;20229;-81
2023/03/30 00:34:50;;;;;;;19.47;16.00;;;8.60;99.90;;;;;;4984274;28;20244;-80
2023/03/30 00:37:17;;;;;;;18.87;16.37;;;8.70;99.90;;;;;;4978232;28;20299;-80
2023/03/30 00:39:44;;;;;;;19.30;16.07;;;8.60;99.90;;;;;;4978817;28;20230;-79
2023/03/30 00:42:15;;;;;;;20.93;16.63;;;8.70;99.90;;;;;;4983913;28;20214;-81
2023/03/30 00:45:16;;;;;;;22.47;16.77;;;8.70;99.90;;;;;;4977121;28;20218;-81
2023/03/30 00:47:48;;;;;;;17.97;15.57;;;8.70;99.90;;;;;;4980350;28;20229;-81
2023/03/30 00:50:20;;;;;;;18.63;15.73;;;8.70;99.90;;;;;;4998772;28;20351;-81
2023/03/30 00:52:51;;;;;;;18.47;15.63;;;8.70;99.90;;;;;;4978679;28;20240;-80
2023/03/30 00:55:20;;;;;;;18.77;15.37;;;8.70;99.90;;;;;;4979023;28;20217;-80
2023/03/30 00:57:50;;;;;;;20.67;15.23;;;8.70;99.90;;;;;;4975425;28;20233;-81
2023/03/30 01:00:17;;;;;;;18.17;15.07;;;8.60;99.90;;;;;;4990882;28;20233;-80
2023/03/30 01:02:49;;;;;;;20.27;15.90;;;8.70;99.90;;;;;;4983020;28;20260;-80
2023/03/30 01:05:17;;;;;;;17.53;15.17;;;8.60;99.90;;;;;;4987170;28;20216;-80
2023/03/30 01:07:45;;;;;;;17.90;14.87;;;8.60;99.90;;;;;;4982612;28;20236;-80
2023/03/30 01:10:12;;;;;;;18.30;15.13;;;8.60;99.90;;;;;;4984826;28;20229;-79
2023/03/30 01:12:40;;;;;;;20.97;14.93;;;8.60;99.90;;;;;;4973951;28;21316;-80
2023/03/30 01:15:09;;;;;;;18.53;14.63;;;8.60;99.90;;;;;;4983700;28;20214;-80
2023/03/30 01:17:43;;;;;;;19.67;14.77;;;8.60;99.90;;;;;;4990972;28;20232;-80
2023/03/30 01:20:48;;;;;;;20.23;15.57;;;8.60;99.90;;;;;;4995123;28;20225;-80
2023/03/30 01:23:52;;;;;;;15.67;13.80;;;8.60;99.90;;;;;;4987368;28;20305;-81
2023/03/30 01:26:46;;;;;;;15.40;13.27;;;8.60;99.90;;;;;;4985953;28;20221;-81
2023/03/30 01:29:23;;;;;;;20.10;14.73;;;8.70;99.90;;;;;;4991147;28;20261;-80
2023/03/30 01:32:35;;;;;;;18.83;14.40;;;8.60;99.90;;;;;;4986450;28;20275;-79
2023/03/30 01:35:38;;;;;;;19.90;14.13;;;8.60;99.90;;;;;;4932082;28;20844;-79
2023/03/30 01:38:38;;;;;;;15.67;12.93;;;8.60;99.90;;;;;;4975767;28;20252;-79
2023/03/30 01:41:15;;;;;;;19.83;14.23;;;8.60;99.90;;;;;;4982170;28;20244;-80
2023/03/30 01:43:48;;;;;;;17.53;13.57;;;8.60;99.90;;;;;;4981692;28;20722;-81
2023/03/30 01:46:24;;;;;;;17.13;14.13;;;8.60;99.90;;;;;;4991515;28;20255;-79
2023/03/30 01:48:59;;;;;;;16.63;13.17;;;8.60;99.90;;;;;;4987840;28;20721;-80
2023/03/30 01:51:31;;;;;;;16.13;12.67;;;8.70;99.90;;;;;;4988253;28;20901;-80
2023/03/30 01:54:04;;;;;;;19.13;13.77;;;8.60;99.90;;;;;;4991765;28;20646;-80
2023/03/30 01:56:36;;;;;;;16.63;13.60;;;8.60;99.90;;;;;;4988754;28;20640;-81
2023/03/30 01:59:08;;;;;;;18.13;14.23;;;8.60;99.90;;;;;;4991690;28;20237;-80
2023/03/30 02:01:38;;;;;;;15.80;13.10;;;8.60;99.90;;;;;;4991089;28;20750;-81
2023/03/30 02:04:08;;;;;;;17.00;13.70;;;8.60;99.90;;;;;;4995342;28;20712;-81
2023/03/30 02:06:38;;;;;;;16.90;13.90;;;8.60;99.90;;;;;;4987588;28;20332;-80
2023/03/30 02:09:07;;;;;;;17.50;12.87;;;8.60;99.90;;;;;;4987336;28;20221;-80
2023/03/30 02:11:40;;;;;;;19.33;14.20;;;8.60;99.90;;;;;;4988403;28;20240;-81
2023/03/30 02:14:09;;;;;;;16.67;14.17;;;8.60;99.90;;;;;;5003865;28;20403;-81
2023/03/30 02:16:41;;;;;;;16.70;13.60;;;8.60;99.90;;;;;;4993501;28;20239;-80
2023/03/30 02:19:08;;;;;;;18.20;13.97;;;8.60;99.90;;;;;;4985020;28;20217;-81
2023/03/30 02:21:35;;;;;;;17.10;14.27;;;8.60;99.90;;;;;;4988400;28;20300;-80
2023/03/30 02:24:07;;;;;;;18.43;14.23;;;8.60;99.90;;;;;;4988944;28;20210;-80
2023/03/30 02:26:35;;;;;;;18.33;13.93;;;8.60;99.90;;;;;;4988900;28;20823;-80
2023/03/30 02:29:02;;;;;;;18.07;13.93;;;8.60;99.90;;;;;;4986443;28;20475;-80
2023/03/30 02:31:31;;;;;;;17.13;14.63;;;8.60;99.90;;;;;;4985135;28;20242;-81
2023/03/30 02:34:12;;;;;;;20.70;15.20;;;8.60;99.90;;;;;;4982825;28;20229;-81
2023/03/30 02:37:08;;;;;;;19.33;15.03;;;8.50;99.90;;;;;;4987438;28;20253;-80
2023/03/30 02:39:43;;;;;;;23.37;15.97;;;8.50;99.90;;;;;;4983153;28;20298;-81
2023/03/30 02:42:40;;;;;;;21.63;15.00;;;8.50;99.90;;;;;;4982478;28;20223;-80
2023/03/30 02:45:22;;;;;;;21.07;16.33;;;8.50;99.90;;;;;;4988313;28;20284;-80
2023/03/30 02:48:00;;;;;;;19.83;15.00;;;8.40;99.90;;;;;;4981482;28;20232;-81
2023/03/30 02:50:34;;;;;;;20.27;15.47;;;8.50;99.90;;;;;;4984737;28;20225;-81
2023/03/30 02:53:14;;;;;;;20.10;15.30;;;8.40;99.90;;;;;;5008598;28;21109;-81
2023/03/30 02:55:51;;;;;;;19.07;15.20;;;8.40;99.90;;;;;;4979634;28;20239;-82
2023/03/30 02:58:31;;;;;;;21.13;15.67;;;8.40;99.90;;;;;;4984920;28;20230;-80
2023/03/30 03:01:13;;;;;;;20.17;15.67;;;8.30;99.90;;;;;;4978219;28;20233;-79
2023/03/30 03:03:51;;;;;;;19.43;15.63;;;8.40;99.90;;;;;;4995457;28;20225;-79
2023/03/30 03:06:19;;;;;;;18.03;15.27;;;8.40;99.90;;;;;;4983041;28;20225;-79
2023/03/30 03:08:53;;;;;;;21.10;15.67;;;8.40;99.90;;;;;;4981409;28;20319;-79
2023/03/30 03:11:27;;;;;;;19.40;15.27;;;8.40;99.90;;;;;;4987341;28;20229;-79
2023/03/30 03:13:55;;;;;;;22.13;15.43;;;8.40;99.90;;;;;;4986399;28;20230;-79
2023/03/30 03:16:23;;;;;;;22.90;16.43;;;8.40;99.90;;;;;;4981498;28;20232;-79
2023/03/30 03:19:08;;;;;;;20.87;15.20;;;8.40;99.90;;;;;;4981504;28;20796;-79
2023/03/30 03:21:35;;;;;;;21.37;15.77;;;8.40;99.90;;;;;;4983694;28;20321;-79
2023/03/30 03:24:02;;;;;;;22.00;15.93;;;8.40;99.90;;;;;;4978851;28;20240;-79
2023/03/30 03:26:49;;;;;;;20.77;15.50;;;8.40;99.90;;;;;;4982767;28;20320;-80
2023/03/30 03:29:19;;;;;;;19.17;14.77;;;8.40;99.90;;;;;;4980750;28;20291;-79
2023/03/30 03:31:46;;;;;;;19.90;15.00;;;8.40;99.90;;;;;;4984360;28;20333;-79
2023/03/30 03:34:12;;;;;;;19.83;15.43;;;8.40;99.90;;;;;;4978413;28;20225;-78
2023/03/30 03:37:01;;;;;;;23.00;15.80;;;8.30;99.90;;;;;;4981639;28;20291;-78
2023/03/30 03:39:30;;;;;;;22.37;16.13;;;8.30;99.90;;;;;;4983483;28;20237;-79
2023/03/30 03:42:06;;;;;;;22.27;15.57;;;8.30;99.90;;;;;;4981443;28;20237;-78
2023/03/30 03:44:37;;;;;;;23.17;15.67;;;8.20;99.90;;;;;;4982395;28;20260;-79
2023/03/30 03:47:04;;;;;;;18.87;15.77;;;8.20;99.90;;;;;;4975903;28;20321;-78
2023/03/30 03:49:30;;;;;;;22.27;15.30;;;8.20;99.90;;;;;;5002927;23;20241;-79
2023/03/30 03:51:57;;;;;;;20.43;15.43;;;8.20;99.90;;;;;;4996822;28;20229;-78
2023/03/30 03:54:25;;;;;;;19.70;15.03;;;8.10;99.90;;;;;;5013103;28;20241;-78
2023/03/30 03:56:55;;;;;;;21.87;14.43;;;8.10;99.90;;;;;;4997492;28;20252;-77
2023/03/30 03:59:22;;;;;;;20.13;15.53;;;8.10;99.90;;;;;;4996960;28;20305;-76
2023/03/30 04:01:50;;;;;;;19.90;15.87;;;8.10;99.90;;;;;;4995910;28;20566;-79
2023/03/30 04:04:20;;;;;;;21.23;15.43;;;8.10;99.90;;;;;;5003623;28;20251;-78
2023/03/30 04:06:47;;;;;;;22.20;15.97;;;8.00;99.90;;;;;;4997906;28;20335;-77
2023/03/30 04:09:13;;;;;;;22.17;15.37;;;8.10;99.90;;;;;;5003898;28;20226;-78
2023/03/30 04:11:59;;;;;;;21.60;14.93;;;8.00;99.90;;;;;;4999733;28;20765;-77
2023/03/30 04:14:55;;;;;;;19.77;15.60;;;8.10;99.90;;;;;;4999386;28;20241;-78
2023/03/30 04:17:48;;;;;;;19.97;14.13;;;8.00;99.90;;;;;;5037405;28;20718;-78
2023/03/30 04:20:22;;;;;;;21.83;14.70;;;8.10;99.90;;;;;;5005768;28;20229;-79
2023/03/30 04:23:00;;;;;;;23.50;15.57;;;8.10;99.90;;;;;;5006287;28;20224;-79
2023/03/30 04:26:03;;;;;;;18.40;14.77;;;8.10;99.90;;;;;;4999634;28;20316;-79
2023/03/30 04:28:52;;;;;;;20.40;15.07;;;8.10;99.90;;;;;;4965482;28;20244;-79
2023/03/30 04:31:40;;;;;;;20.53;14.93;;;8.20;99.90;;;;;;4979422;28;20753;-79
2023/03/30 04:34:09;;;;;;;17.97;14.10;;;8.20;99.90;;;;;;4994235;28;20605;-79
2023/03/30 04:36:54;;;;;;;19.30;14.37;;;8.10;99.90;;;;;;5009672;28;20623;-79
2023/03/30 04:39:42;;;;;;;19.33;15.03;;;8.10;99.90;;;;;;5021867;28;20687;-79
2023/03/30 04:42:36;;;;;;;19.13;14.23;;;8.10;99.90;;;;;;5024874;28;20232;-79
2023/03/30 04:45:30;;;;;;;19.63;14.73;;;8.20;99.90;;;;;;5000715;28;20292;-79
2023/03/30 04:48:29;;;;;;;16.53;13.43;;;8.20;99.90;;;;;;4974601;28;20241;-79
2023/03/30 04:51:26;;;;;;;20.37;14.47;;;8.20;99.90;;;;;;4983600;28;20230;-78
2023/03/30 04:54:18;;;;;;;20.77;14.50;;;8.20;99.90;;;;;;5003397;28;20236;-79
2023/03/30 04:57:03;;;;;;;17.23;12.60;;;8.20;99.90;;;;;;5005364;28;20240;-79
2023/03/30 04:59:49;;;;;;;19.27;13.23;;;8.20;99.90;;;;;;5003191;28;20243;-78
2023/03/30 05:02:34;;;;;;;16.27;13.10;;;8.20;99.90;;;;;;4997623;28;20239;-79
2023/03/30 05:05:16;;;;;;;17.47;13.20;;;8.20;99.90;;;;;;5003722;28;20252;-79
2023/03/30 05:08:17;;;;;;;15.37;12.70;;;8.20;99.90;;;;;;4998615;28;20226;-79
2023/03/30 05:11:03;;;;;;;16.97;12.53;;;8.20;99.90;;;;;;4985916;28;20379;-79
2023/03/30 05:13:51;;;;;;;17.40;12.93;;;8.20;99.90;;;;;;4991685;28;20242;-79
2023/03/30 05:16:30;;;;;;;16.93;13.43;;;8.20;99.90;;;;;;5036696;28;20239;-79
2023/03/30 05:19:26;;;;;;;36.77;24.03;;;8.20;99.90;;;;;;4997569;28;20548;-79
2023/03/30 05:22:22;;;;;;;22.50;17.20;;;8.20;99.90;;;;;;4984817;28;20260;-79
2023/03/30 05:25:07;;;;;;;18.57;13.33;;;8.20;99.90;;;;;;5004059;28;20272;-79
2023/03/30 05:28:03;;;;;;;19.57;14.03;;;8.20;99.90;;;;;;4957196;28;20258;-79
2023/03/30 05:31:09;;;;;;;14.70;12.53;;;8.20;99.90;;;;;;4961180;28;20265;-79
2023/03/30 05:33:55;;;;;;;15.03;11.43;;;8.30;99.90;;;;;;4947083;28;20241;-79
2023/03/30 05:36:45;;;;;;;14.73;11.93;;;8.30;99.90;;;;;;4966154;28;20276;-79
2023/03/30 05:39:31;;;;;;;13.83;11.03;;;8.30;99.90;;;;;;5019087;28;20303;-79
2023/03/30 05:42:06;;;;;;;16.37;11.13;;;8.30;99.90;;;;;;5005653;28;20232;-79
2023/03/30 05:44:40;;;;;;;13.73;10.63;;;8.40;99.90;;;;;;5020388;28;20236;-79
2023/03/30 05:47:29;;;;;;;13.40;10.57;;;8.40;99.90;;;;;;4999456;28;20285;-79
2023/03/30 05:49:56;;;;;;;16.53;10.57;;;8.50;99.90;;;;;;5005908;28;20223;-79
2023/03/30 05:52:32;;;;;;;14.80;10.90;;;8.50;99.90;;;;;;5004065;28;20320;-79
2023/03/30 05:55:11;;;;;;;13.13;9.60;;;8.50;99.90;;;;;;5019964;28;20282;-79
2023/03/30 05:57:40;;;;;;;14.60;10.27;;;8.60;99.90;;;;;;5005570;28;20232;-79
2023/03/30 06:00:27;;;;;;;15.97;10.13;;;8.60;99.90;;;;;;5019992;28;20319;-79
2023/03/30 06:03:03;;;;;;;13.03;9.83;;;8.70;99.90;;;;;;5011911;28;20287;-79
2023/03/30 06:05:33;;;;;;;14.30;10.50;;;8.70;99.90;;;;;;5026020;28;20906;-80
2023/03/30 06:08:00;;;;;;;13.23;10.27;;;8.70;99.90;;;;;;5008604;28;20225;-79
2023/03/30 06:10:27;;;;;;;13.57;9.67;;;8.70;99.90;;;;;;5025760;28;20241;-78
2023/03/30 06:12:56;;;;;;;12.23;9.60;;;8.80;99.90;;;;;;5021935;28;20237;-78
2023/03/30 06:15:54;;;;;;;12.93;9.37;;;8.80;99.90;;;;;;5011136;28;20225;-82
2023/03/30 06:18:23;;;;;;;13.53;10.23;;;8.80;99.90;;;;;;5019900;28;20244;-81
2023/03/30 06:21:01;;;;;;;14.50;10.87;;;8.80;99.90;;;;;;5011118;28;20791;-81
2023/03/30 06:23:28;;;;;;;13.43;9.90;;;8.80;99.90;;;;;;5011645;28;20278;-81
2023/03/30 06:26:00;;;;;;;13.63;10.33;;;8.80;99.90;;;;;;5013066;28;20232;-80
2023/03/30 06:28:31;;;;;;;13.37;10.33;;;8.80;99.90;;;;;;5027494;28;20630;-80
2023/03/30 06:31:00;;;;;;;12.63;10.30;;;8.80;99.90;;;;;;5026505;28;20263;-80
2023/03/30 06:33:27;;;;;;;14.60;10.43;;;8.80;99.90;;;;;;5025904;28;20225;-81
2023/03/30 06:36:00;;;;;;;13.43;10.83;;;8.80;99.90;;;;;;5026761;28;20738;-81
2023/03/30 06:38:28;;;;;;;18.53;10.30;;;8.80;99.90;;;;;;5025988;28;20225;-80
2023/03/30 06:40:56;;;;;;;13.33;9.90;;;8.80;99.90;;;;;;5027673;28;20228;-80
2023/03/30 06:43:25;;;;;;;12.47;9.57;;;8.80;99.90;;;;;;5025812;28;20313;-81
2023/03/30 06:46:29;;;;;;;13.93;10.07;;;8.90;99.90;;;;;;5011437;28;20239;-80
2023/03/30 06:48:55;;;;;;;14.03;9.53;;;8.90;99.90;;;;;;5027988;28;20275;-80
2023/03/30 06:51:41;;;;;;;14.20;9.87;;;9.00;99.90;;;;;;5012024;28;20236;-80
2023/03/30 06:54:08;;;;;;;15.20;9.70;;;9.10;99.90;;;;;;5027781;28;20228;-80
2023/03/30 06:56:37;;;;;;;12.43;9.57;;;9.20;99.90;;;;;;5027347;28;20240;-81
2023/03/30 06:59:15;;;;;;;14.27;9.57;;;9.30;99.90;;;;;;5027566;28;20229;-80
2023/03/30 07:02:03;;;;;;;12.33;8.77;;;9.50;99.90;;;;;;5013067;28;20763;-81
2023/03/30 07:04:50;;;;;;;11.20;8.67;;;9.60;99.90;;;;;;5012708;28;20236;-80
2023/03/30 07:07:37;;;;;;;11.87;8.73;;;9.70;99.90;;;;;;5011956;28;20229;-78
2023/03/30 07:10:09;;;;;;;10.20;8.13;;;9.80;99.90;;;;;;5027363;28;20229;-81
2023/03/30 07:12:36;;;;;;;9.87;7.77;;;9.90;99.90;;;;;;5026723;28;20231;-81
2023/03/30 07:15:03;;;;;;;11.27;8.03;;;10.00;99.90;;;;;;5028036;28;20232;-80
2023/03/30 07:17:31;;;;;;;10.97;8.23;;;10.10;99.90;;;;;;5027485;28;20218;-80
2023/03/30 07:19:58;;;;;;;13.20;8.43;;;10.30;99.90;;;;;;5027576;28;20238;-80
2023/03/30 07:22:25;;;;;;;12.33;7.33;;;10.40;99.90;;;;;;5026585;28;20275;-80
2023/03/30 07:24:54;;;;;;;9.43;6.90;;;10.50;99.90;;;;;;5011490;28;20331;-79
2023/03/30 07:27:23;;;;;;;10.83;7.00;;;10.60;99.90;;;;;;5025838;28;20678;-80
2023/03/30 07:29:51;;;;;;;11.17;6.87;;;10.70;99.90;;;;;;5026845;28;20237;-80
2023/03/30 07:32:18;;;;;;;11.37;6.83;;;10.80;99.90;;;;;;5025282;28;20231;-80
2023/03/30 07:34:46;;;;;;;9.83;6.43;;;10.90;99.90;;;;;;5013111;28;20229;-80
2023/03/30 07:37:15;;;;;;;9.03;6.13;;;11.00;99.90;;;;;;5027059;28;20234;-80
2023/03/30 07:39:44;;;;;;;9.63;6.10;;;11.20;99.90;;;;;;5026763;28;20273;-79
2023/03/30 07:42:11;;;;;;;7.43;6.17;;;11.20;99.90;;;;;;5026243;28;20222;-79
2023/03/30 07:44:38;;;;;;;11.57;6.90;;;11.30;99.90;;;;;;5027824;28;20736;-80
2023/03/30 07:47:07;;;;;;;9.13;6.33;;;11.40;99.90;;;;;;5025674;28;20592;-80
2023/03/30 07:49:36;;;;;;;9.93;5.73;;;11.40;99.90;;;;;;5026241;28;20317;-80
2023/03/30 07:52:06;;;;;;;10.60;6.33;;;11.50;99.90;;;;;;5026259;28;20229;-79
2023/03/30 07:54:42;;;;;;;11.03;5.80;;;11.60;99.90;;;;;;5009850;28;20243;-80
2023/03/30 07:57:16;;;;;;;9.20;5.80;;;11.60;99.90;;;;;;5024779;28;20319;-79
2023/03/30 07:59:43;;;;;;;9.73;5.30;;;11.70;99.90;;;;;;5014717;28;20243;-81
2023/03/30 08:02:20;;;;;;;9.60;5.70;;;11.70;99.90;;;;;;5031352;28;20223;-81
2023/03/30 08:04:51;;;;;;;10.83;5.67;;;11.70;99.90;;;;;;5008529;28;20223;-80
2023/03/30 08:07:26;;;;;;;8.07;5.40;;;11.70;99.90;;;;;;5031656;28;20253;-80
2023/03/30 08:10:02;;;;;;;11.10;5.60;;;11.60;99.90;;;;;;5017632;28;20704;-80
2023/03/30 08:12:29;;;;;;;11.70;5.13;;;11.60;99.90;;;;;;5016883;28;20760;-80
2023/03/30 08:14:56;;;;;;;8.77;5.00;;;11.60;99.90;;;;;;5018150;28;20695;-80
2023/03/30 08:17:22;;;;;;;9.43;5.50;;;11.50;99.90;;;;;;5016938;28;20644;-80
2023/03/30 08:19:49;;;;;;;7.13;4.83;;;11.50;99.90;;;;;;5018010;28;20239;-79
2023/03/30 08:22:16;;;;;;;9.23;5.60;;;11.50;99.90;;;;;;5015120;28;20233;-80
2023/03/30 08:24:44;;;;;;;6.87;5.57;;;11.60;99.90;;;;;;5015542;28;20228;-78
2023/03/30 08:27:10;;;;;;;8.03;5.30;;;11.80;99.90;;;;;;5022288;28;20265;-77
2023/03/30 08:29:37;;;;;;;9.60;4.70;;;12.10;99.90;;;;;;5007828;28;20230;-77
2023/03/30 08:32:04;;;;;;;9.43;5.13;;;12.40;99.90;;;;;;5006326;28;20231;-78
2023/03/30 08:34:31;;;;;;;9.13;4.90;;;12.80;99.90;;;;;;5010699;28;20725;-77
2023/03/30 08:37:14;;;;;;;7.60;4.67;;;13.00;99.90;;;;;;5005544;28;20264;-80
2023/03/30 08:39:51;;;;;;;8.77;5.17;;;13.10;99.90;;;;;;5007906;28;20246;-80
2023/03/30 08:42:40;;;;;;;8.73;4.33;;;13.20;99.90;;;;;;5015569;28;20233;-80
2023/03/30 08:45:09;;;;;;;9.90;4.97;;;13.20;99.90;;;;;;5010931;28;20311;-80
2023/03/30 08:47:38;;;;;;;6.53;4.43;;;13.40;99.90;;;;;;5008306;28;20230;-80
2023/03/30 08:50:11;;;;;;;8.83;4.60;;;13.60;99.90;;;;;;5013699;28;20803;-81
2023/03/30 08:52:40;;;;;;;7.70;4.37;;;13.90;99.90;;;;;;5014944;28;20722;-81
2023/03/30 08:55:20;;;;;;;9.27;4.23;;;14.10;99.90;;;;;;5009319;28;20258;-81
2023/03/30 08:57:54;;;;;;;7.87;3.83;;;14.20;99.90;;;;;;5015586;28;20243;-81
2023/03/30 09:00:35;;;;;;;5.87;3.50;;;14.20;99.90;;;;;;5014375;28;20714;-81
2023/03/30 09:03:30;;;;;;;4.80;3.30;;;14.20;99.90;;;;;;5016035;28;20446;-81
2023/03/30 09:06:04;;;;;;;6.97;3.30;;;14.10;99.90;;;;;;5013409;28;20237;-80
2023/03/30 09:08:33;;;;;;;8.43;3.40;;;14.10;99.90;;;;;;5004600;28;20248;-80
2023/03/30 09:11:05;;;;;;;7.37;3.47;;;14.20;99.90;;;;;;5012438;28;20253;-81
2023/03/30 09:13:36;;;;;;;7.73;2.87;;;14.20;99.90;;;;;;5022758;28;20248;-80
2023/03/30 09:16:13;;;;;;;5.27;2.73;;;14.20;99.90;;;;;;5016596;28;20261;-80
2023/03/30 09:18:45;;;;;;;9.30;3.40;;;14.30;99.90;;;;;;5015821;28;20757;-80
2023/03/30 09:21:12;;;;;;;5.57;3.47;;;14.40;99.90;;;;;;5016348;28;20246;-80
2023/03/30 09:23:43;;;;;;;10.33;3.60;;;14.60;99.90;;;;;;5016539;28;20231;-80
2023/03/30 09:26:20;;;;;;;6.90;3.67;;;14.80;99.90;;;;;;5017184;28;20295;-80
2023/03/30 09:28:54;;;;;;;6.70;3.37;;;15.20;99.90;;;;;;5016959;28;20250;-80
2023/03/30 09:31:24;;;;;;;8.17;3.77;;;15.60;99.90;;;;;;5015495;28;20240;-80
2023/03/30 09:33:58;;;;;;;7.10;3.47;;;16.10;99.90;;;;;;5031335;28;20285;-80
2023/03/30 09:36:32;;;;;;;7.33;3.57;;;16.50;99.90;;;;;;5034363;28;20233;-80
2023/03/30 09:38:59;;;;;;;8.47;3.30;;;16.80;99.90;;;;;;5013956;28;20242;-78
2023/03/30 09:41:48;;;;;;;6.47;3.47;;;17.00;99.90;;;;;;5025683;28;20221;-77
2023/03/30 09:44:22;;;;;;;5.33;3.33;;;17.00;99.90;;;;;;5010836;28;20239;-77
2023/03/30 09:46:49;;;;;;;10.37;3.80;;;16.80;99.90;;;;;;5005247;28;20225;-78
2023/03/30 09:49:16;;;;;;;5.53;3.73;;;16.60;99.90;;;;;;5006041;28;20564;-78
2023/03/30 09:51:54;;;;;;;6.50;3.40;;;16.30;99.90;;;;;;5011439;28;20232;-78
2023/03/30 09:54:22;;;;;;;7.10;3.97;;;15.90;99.90;;;;;;5004740;28;20217;-79
2023/03/30 09:56:55;;;;;;;7.33;3.70;;;15.60;99.90;;;;;;5010088;28;20219;-78
2023/03/30 09:59:31;;;;;;;7.13;3.27;;;15.30;99.90;;;;;;5010974;28;20216;-78
2023/03/30 10:02:20;;;;;;;4.03;3.10;;;14.90;99.90;;;;;;5033553;28;20219;-81
2023/03/30 10:05:16;;;;;;;7.47;3.40;;;14.70;99.90;;;;;;5006814;28;20227;-80
2023/03/30 10:07:44;;;;;;;9.83;3.70;;;14.50;99.90;;;;;;5010923;28;20231;-80
2023/03/30 10:10:16;;;;;;;6.53;3.43;;;14.50;99.90;;;;;;5058946;28;20228;-80
2023/03/30 10:12:46;;;;;;;5.73;3.70;;;14.50;99.90;;;;;;5030484;28;20611;-80
2023/03/30 10:15:26;;;;;;;7.37;3.63;;;14.50;99.90;;;;;;5012585;28;20234;-80
2023/03/30 10:17:56;;;;;;;7.90;3.80;;;14.50;99.90;;;;;;5003337;28;20326;-80
2023/03/30 10:20:33;;;;;;;5.37;3.47;;;14.60;99.90;;;;;;5001873;28;20234;-80
2023/03/30 10:23:04;;;;;;;5.53;3.10;;;14.60;99.90;;;;;;5028495;28;20220;-80
2023/03/30 10:25:33;;;;;;;6.40;3.40;;;14.60;99.90;;;;;;5037000;28;20243;-80
2023/03/30 10:28:05;;;;;;;6.30;3.20;;;14.60;99.90;;;;;;5039619;28;20230;-80
2023/03/30 10:30:33;;;;;;;7.50;3.50;;;14.70;99.90;;;;;;5069190;28;20296;-80
2023/03/30 10:33:02;;;;;;;6.27;3.47;;;14.90;99.90;;;;;;5036693;28;20235;-80
2023/03/30 10:35:34;;;;;;;5.27;3.10;;;15.10;99.90;;;;;;5009302;28;20706;-80
2023/03/30 10:38:02;;;;;;;5.47;3.13;;;15.30;99.90;;;;;;5036786;28;20322;-80
2023/03/30 10:40:33;;;;;;;6.87;3.10;;;15.50;99.90;;;;;;5049667;28;20284;-80
2023/03/30 10:43:03;;;;;;;6.80;2.80;;;15.70;99.90;;;;;;5066116;28;20232;-80
2023/03/30 10:45:35;;;;;;;4.20;2.53;;;15.90;99.90;;;;;;5002095;28;20235;-80
2023/03/30 10:48:28;;;;;;;7.00;2.80;;;16.20;99.90;;;;;;5016615;28;20233;-80
2023/03/30 10:51:05;;;;;;;6.80;2.80;;;16.40;99.90;;;;;;4993474;28;20230;-80
2023/03/30 10:53:45;;;;;;;6.03;2.70;;;16.60;99.90;;;;;;4999667;28;20279;-77
2023/03/30 10:56:24;;;;;;;8.03;2.93;;;16.70;99.90;;;;;;5006464;28;20229;-78
2023/03/30 10:59:14;;;;;;;6.23;2.53;;;16.70;99.90;;;;;;5009066;28;20239;-78
2023/03/30 11:01:51;;;;;;;7.37;2.77;;;16.60;99.90;;;;;;5014068;28;20290;-78
2023/03/30 11:04:25;;;;;;;4.87;2.40;;;16.60;99.90;;;;;;5010161;28;20231;-80
2023/03/30 11:06:54;;;;;;;4.50;2.27;;;16.60;99.90;;;;;;5009718;28;20259;-77
2023/03/30 11:09:26;;;;;;;4.00;2.10;;;16.60;99.90;;;;;;5008319;28;20719;-77
2023/03/30 11:11:58;;;;;;;8.77;2.70;;;16.60;99.90;;;;;;5007510;28;20228;-78
2023/03/30 11:14:35;;;;;;;6.20;2.10;;;16.60;99.90;;;;;;5016863;28;20587;-78
2023/03/30 11:17:07;;;;;;;3.80;2.10;;;16.60;99.90;;;;;;5028162;28;20755;-77
2023/03/30 11:19:38;;;;;;;7.73;2.33;;;16.50;99.90;;;;;;5007916;28;20599;-77
2023/03/30 11:22:16;;;;;;;5.33;2.50;;;16.30;99.90;;;;;;5022943;28;20235;-77
2023/03/30 11:24:46;;;;;;;3.83;1.80;;;16.20;99.90;;;;;;5031589;28;20576;-79
2023/03/30 11:27:19;;;;;;;4.33;1.80;;;16.00;99.90;;;;;;5013211;28;20256;-77
2023/03/30 11:29:51;;;;;;;5.47;2.00;;;15.90;99.90;;;;;;5008437;28;20235;-76
2023/03/30 11:32:29;;;;;;;5.40;2.03;;;15.80;99.90;;;;;;5007322;28;20226;-77
2023/03/30 11:35:05;;;;;;;5.07;1.90;;;15.70;99.90;;;;;;5013215;28;20234;-79
2023/03/30 11:37:35;;;;;;;3.80;1.87;;;15.60;99.90;;;;;;5045588;28;20261;-79
2023/03/30 11:40:13;;;;;;;4.27;2.10;;;15.70;99.90;;;;;;5011729;28;20713;-76
2023/03/30 11:42:40;;;;;;;5.23;2.00;;;15.80;99.90;;;;;;5011022;28;20236;-79
2023/03/30 11:45:19;;;;;;;4.23;1.83;;;16.00;99.90;;;;;;5015037;28;20237;-79
2023/03/30 11:48:01;;;;;;;4.53;1.60;;;16.10;99.90;;;;;;5015509;28;20696;-80
2023/03/30 11:50:40;;;;;;;7.13;1.60;;;16.30;99.90;;;;;;5008637;28;20232;-77
2023/03/30 11:53:23;;;;;;;4.23;1.60;;;16.40;99.90;;;;;;5007350;28;20239;-77
2023/03/30 11:56:06;;;;;;;2.53;1.40;;;16.60;99.90;;;;;;5007871;28;20271;-78
2023/03/30 11:58:36;;;;;;;4.13;1.23;;;16.80;99.90;;;;;;5007132;28;20241;-77
2023/03/30 12:01:34;;;;;;;3.77;1.43;;;17.00;99.90;;;;;;5008050;28;20233;-77
2023/03/30 12:04:07;;;;;;;3.77;1.30;;;17.10;98.00;;;;;;5002657;28;20217;-77
2023/03/30 12:06:38;;;;;;;3.13;1.00;;;17.30;99.20;;;;;;5007528;28;20743;-77
2023/03/30 12:09:22;;;;;;;4.13;1.27;;;17.40;99.60;;;;;;5009015;28;20300;-79
2023/03/30 12:11:53;;;;;;;6.73;1.67;;;17.60;98.90;;;;;;5011041;28;20225;-79
2023/03/30 12:14:50;;;;;;;3.23;1.30;;;17.70;98.50;;;;;;5011225;28;20288;-79
2023/03/30 12:17:32;;;;;;;5.00;1.47;;;17.80;97.80;;;;;;5024772;28;20321;-79
2023/03/30 12:20:04;;;;;;;4.97;1.37;;;17.90;97.80;;;;;;5012173;28;20241;-79
2023/03/30 12:22:37;;;;;;;7.13;2.10;;;17.90;97.80;;;;;;5011253;28;20225;-79
2023/03/30 12:25:15;;;;;;;3.73;1.47;;;17.80;97.10;;;;;;5025593;28;20324;-79
2023/03/30 12:28:02;;;;;;;3.27;1.40;;;17.70;97.50;;;;;;5010772;28;20236;-79
2023/03/30 12:30:30;;;;;;;6.73;2.00;;;17.50;97.50;;;;;;5011137;28;20762;-79
2023/03/30 12:33:11;;;;;;;3.33;1.37;;;17.30;98.30;;;;;;5010605;28;20232;-79
2023/03/30 12:35:52;;;;;;;10.03;2.40;;;17.00;99.50;;;;;;5025668;28;20799;-79
2023/03/30 12:38:24;;;;;;;6.07;1.80;;;16.60;99.90;;;;;;5015489;28;20301;-81
2023/03/30 12:41:01;;;;;;;6.30;2.00;;;16.20;99.90;;;;;;5007750;28;20923;-81
2023/03/30 12:43:37;;;;;;;6.73;1.90;;;15.70;99.90;;;;;;5027270;28;20727;-82
2023/03/30 12:46:12;;;;;;;9.80;2.23;;;15.30;99.90;;;;;;5025401;28;20224;-81
2023/03/30 12:48:51;;;;;;;7.53;2.10;;;15.00;99.90;;;;;;5028879;28;20269;-81
2023/03/30 12:51:32;;;;;;;10.10;2.73;;;14.70;99.90;;;;;;5034498;28;20222;-80
2023/03/30 12:54:23;;;;;;;7.23;2.00;;;14.50;99.90;;;;;;5030148;28;20253;-81
2023/03/30 12:56:58;;;;;;;7.80;2.33;;;14.30;99.90;;;;;;5007333;28;20250;-80
2023/03/30 12:59:52;;;;;;;12.80;2.40;;;14.10;99.90;;;;;;5008609;28;20284;-80
2023/03/30 13:02:50;;;;;;;6.00;2.63;;;14.00;99.90;;;;;;5021856;28;20480;-81
2023/03/30 13:05:25;;;;;;;9.77;2.60;;;13.90;99.90;;;;;;5011165;28;20225;-81
2023/03/30 13:07:55;;;;;;;8.63;2.47;;;13.90;99.90;;;;;;5025659;28;20249;-80
2023/03/30 13:10:38;;;;;;;9.43;2.47;;;13.90;99.90;;;;;;5005458;28;20254;-80
2023/03/30 13:13:15;;;;;;;10.47;2.50;;;14.00;99.90;;;;;;5010865;28;20274;-80
2023/03/30 13:15:47;;;;;;;10.70;2.90;;;14.10;99.90;;;;;;5011370;28;20826;-81
2023/03/30 13:18:34;;;;;;;9.93;3.03;;;14.20;99.90;;;;;;5011155;28;20790;-81
2023/03/30 13:21:17;;;;;;;8.03;2.23;;;14.30;99.90;;;;;;5014353;28;20286;-81
2023/03/30 13:23:57;;;;;;;6.87;2.37;;;14.40;99.90;;;;;;5029492;28;20277;-80